createdAt,value
2022-10-17T00:01:30.421Z,92.51
2022-10-17T00:03:57.245Z,92.82
2022-10-17T00:06:23.888Z,93.35
2022-10-17T00:08:50.570Z,94.35
2022-10-17T00:11:22.770Z,94.37
2022-10-17T00:13:51.285Z,95.49
2022-10-17T00:16:27.501Z,93.69
2022-10-17T00:18:54.532Z,93.77
2022-10-17T00:21:22.776Z,94.63
2022-10-17T00:23:49.877Z,96.22
2022-10-17T00:26:17.436Z,97.35
2022-10-17T00:28:48.664Z,98.56
2022-10-17T00:31:17.922Z,99.56
2022-10-17T00:33:44.954Z,100.00
2022-10-17T00:36:14.637Z,100.00
2022-10-17T00:38:45.274Z,100.00
2022-10-17T00:41:15.085Z,100.00
2022-10-17T00:44:09.344Z,100.00
2022-10-17T00:46:38.421Z,100.00
2022-10-17T00:49:11.921Z,100.00
2022-10-17T00:52:01.379Z,100.00
2022-10-17T00:54:33.440Z,100.00
2022-10-17T00:57:01.400Z,100.00
2022-10-17T00:59:29.478Z,100.00
2022-10-17T01:02:08.724Z,100.00
2022-10-17T01:04:37.213Z,97.53
2022-10-17T01:07:03.985Z,95.87
2022-10-17T01:09:30.999Z,96.33
2022-10-17T01:12:21.630Z,96.48
2022-10-17T01:14:57.100Z,96.98
2022-10-17T01:17:42.127Z,97.94
2022-10-17T01:20:23.756Z,98.54
2022-10-17T01:23:30.179Z,98.57
2022-10-17T01:26:27.802Z,98.69
2022-10-17T01:29:33.087Z,98.25
2022-10-17T01:32:15.271Z,97.96
2022-10-17T01:34:50.222Z,97.75
2022-10-17T01:37:37.548Z,98.07
2022-10-17T01:40:14.259Z,98.39
2022-10-17T01:43:04.685Z,99.38
2022-10-17T01:45:41.787Z,99.79
2022-10-17T01:48:17.044Z,100.00
2022-10-17T01:50:54.121Z,100.00
2022-10-17T01:53:36.531Z,100.00
2022-10-17T01:56:08.665Z,100.00
2022-10-17T01:58:52.579Z,100.00
2022-10-17T02:01:21.595Z,100.00
2022-10-17T02:03:51.321Z,100.00
2022-10-17T02:06:17.996Z,100.00
2022-10-17T02:08:50.256Z,100.00
2022-10-17T02:11:25.554Z,100.00
2022-10-17T02:13:57.945Z,100.00
2022-10-17T02:16:47.399Z,100.00
2022-10-17T02:20:01.746Z,100.00
2022-10-17T02:22:51.880Z,100.00
2022-10-17T02:25:28.243Z,100.00
2022-10-17T02:28:02.693Z,100.00
2022-10-17T02:30:36.614Z,100.00
2022-10-17T02:33:29.860Z,100.00
2022-10-17T02:36:02.721Z,100.00
2022-10-17T02:38:31.852Z,100.00
2022-10-17T02:40:58.985Z,100.00
2022-10-17T02:43:25.756Z,100.00
2022-10-17T02:45:53.508Z,100.00
2022-10-17T02:49:02.328Z,100.00
2022-10-17T02:51:39.249Z,100.00
2022-10-17T02:54:22.636Z,100.00
2022-10-17T02:57:02.352Z,100.00
2022-10-17T02:59:31.813Z,100.00
2022-10-17T03:02:03.566Z,100.00
2022-10-17T03:04:31.587Z,100.00
2022-10-17T03:06:58.177Z,100.00
2022-10-17T03:09:25.279Z,100.00
2022-10-17T03:11:52.063Z,100.00
2022-10-17T03:14:18.977Z,100.00
2022-10-17T03:16:46.506Z,100.00
2022-10-17T03:19:14.361Z,100.00
2022-10-17T03:21:41.011Z,100.00
2022-10-17T03:24:08.051Z,100.00
2022-10-17T03:26:34.928Z,100.00
2022-10-17T03:29:03.072Z,100.00
2022-10-17T03:31:30.225Z,100.00
2022-10-17T03:33:57.150Z,100.00
2022-10-17T03:36:23.790Z,100.00
2022-10-17T03:38:54.181Z,100.00
2022-10-17T03:41:21.507Z,100.00
2022-10-17T03:43:48.426Z,100.00
2022-10-17T03:46:15.488Z,100.00
2022-10-17T03:48:43.149Z,100.00
2022-10-17T03:51:10.182Z,100.00
2022-10-17T03:53:43.761Z,100.00
2022-10-17T03:56:22.261Z,100.00
2022-10-17T03:58:55.560Z,100.00
2022-10-17T04:01:23.068Z,100.00
2022-10-17T04:03:51.584Z,100.00
2022-10-17T04:06:19.208Z,100.00
2022-10-17T04:08:46.587Z,100.00
2022-10-17T04:11:21.346Z,100.00
2022-10-17T04:13:54.077Z,100.00
2022-10-17T04:16:21.589Z,100.00
2022-10-17T04:18:55.709Z,100.00
2022-10-17T04:21:24.391Z,100.00
2022-10-17T04:23:56.153Z,100.00
2022-10-17T04:26:36.199Z,100.00
2022-10-17T04:29:02.942Z,100.00
2022-10-17T04:31:29.533Z,100.00
2022-10-17T04:34:06.972Z,100.00
2022-10-17T04:36:34.008Z,100.00
2022-10-17T04:39:03.006Z,100.00
2022-10-17T04:41:30.319Z,100.00
2022-10-17T04:43:57.189Z,100.00
2022-10-17T04:46:24.963Z,100.00
2022-10-17T04:48:51.633Z,100.00
2022-10-17T04:51:20.776Z,100.00
2022-10-17T04:54:08.671Z,100.00
2022-10-17T04:56:35.983Z,100.00
2022-10-17T04:59:03.044Z,100.00
2022-10-17T05:01:30.427Z,100.00
2022-10-17T05:03:57.379Z,100.00
2022-10-17T05:06:25.379Z,100.00
2022-10-17T05:09:07.747Z,100.00
2022-10-17T05:11:34.389Z,100.00
2022-10-17T05:14:01.950Z,100.00
2022-10-17T05:16:30.323Z,100.00
2022-10-17T05:18:59.074Z,100.00
2022-10-17T05:21:29.960Z,100.00
2022-10-17T05:23:57.957Z,100.00
2022-10-17T05:26:25.667Z,100.00
2022-10-17T05:28:54.067Z,100.00
2022-10-17T05:31:22.550Z,100.00
2022-10-17T05:33:49.371Z,100.00
2022-10-17T05:36:16.018Z,100.00
2022-10-17T05:38:43.585Z,100.00
2022-10-17T05:41:11.338Z,100.00
2022-10-17T05:43:38.349Z,100.00
2022-10-17T05:46:06.264Z,100.00
2022-10-17T05:48:34.233Z,100.00
2022-10-17T05:51:05.265Z,100.00
2022-10-17T05:53:34.279Z,100.00
2022-10-17T05:56:06.505Z,100.00
2022-10-17T05:58:51.577Z,100.00
2022-10-17T06:01:28.783Z,100.00
2022-10-17T06:03:55.883Z,99.85
2022-10-17T06:06:22.865Z,99.56
2022-10-17T06:08:50.749Z,98.52
2022-10-17T06:11:22.632Z,98.04
2022-10-17T06:13:49.261Z,97.39
2022-10-17T06:16:21.751Z,96.39
2022-10-17T06:21:19.991Z,94.10
2022-10-17T06:23:50.134Z,92.89
2022-10-17T06:26:25.532Z,93.89
2022-10-17T06:28:54.274Z,93.46
2022-10-17T06:31:21.006Z,92.94
2022-10-17T06:33:47.658Z,92.17
2022-10-17T06:36:15.109Z,91.08
2022-10-17T06:38:42.281Z,90.54
2022-10-17T06:41:18.824Z,89.99
2022-10-17T06:43:46.862Z,89.54
2022-10-17T06:46:49.047Z,88.32
2022-10-17T06:49:17.638Z,89.18
2022-10-17T06:51:52.267Z,86.43
2022-10-17T06:54:22.887Z,85.81
2022-10-17T06:57:09.733Z,87.26
2022-10-17T06:59:59.420Z,87.05
2022-10-17T07:02:33.471Z,87.67
2022-10-17T07:05:01.352Z,84.78
2022-10-17T07:07:32.120Z,85.36
2022-10-17T07:09:59.266Z,84.21
2022-10-17T07:12:25.967Z,83.58
2022-10-17T07:14:52.619Z,81.34
2022-10-17T07:17:19.401Z,78.69
2022-10-17T07:19:46.924Z,79.44
2022-10-17T07:22:13.574Z,78.94
2022-10-17T07:24:43.604Z,73.58
2022-10-17T07:27:45.679Z,72.00
2022-10-17T07:30:12.637Z,70.67
2022-10-17T07:32:42.130Z,72.79
2022-10-17T07:35:10.286Z,71.07
2022-10-17T07:37:37.723Z,68.87
2022-10-17T07:40:07.554Z,67.94
2022-10-17T07:42:36.614Z,68.60
2022-10-17T07:45:04.181Z,67.39
2022-10-17T07:47:35.180Z,64.43
2022-10-17T07:50:03.681Z,64.35
2022-10-17T07:52:30.560Z,64.96
2022-10-17T07:54:57.452Z,64.06
2022-10-17T07:57:24.256Z,63.16
2022-10-17T07:59:51.181Z,63.29
2022-10-17T08:02:23.060Z,63.37
2022-10-17T08:04:50.370Z,63.15
2022-10-17T08:07:23.069Z,62.44
2022-10-17T08:09:52.153Z,62.33
2022-10-17T08:12:18.854Z,60.56
2022-10-17T08:14:45.444Z,61.05
2022-10-17T08:17:12.081Z,60.33
2022-10-17T08:19:39.880Z,60.19
2022-10-17T08:22:07.174Z,56.05
2022-10-17T08:24:33.894Z,54.97
2022-10-17T08:27:00.823Z,53.05
2022-10-17T08:29:27.630Z,51.66
2022-10-17T08:31:58.611Z,48.23
2022-10-17T08:34:28.100Z,47.49
2022-10-17T08:36:54.764Z,44.85
2022-10-17T08:39:21.440Z,43.95
2022-10-17T08:42:18.056Z,41.91
2022-10-17T08:45:09.922Z,40.69
2022-10-17T08:47:44.777Z,39.75
2022-10-17T08:50:34.780Z,37.75
2022-10-17T08:53:40.678Z,36.50
2022-10-17T08:56:49.030Z,35.42
2022-10-17T08:59:28.019Z,33.41
2022-10-17T09:02:50.292Z,34.56
2022-10-17T09:05:26.331Z,33.00
2022-10-17T09:08:16.842Z,32.67
2022-10-17T09:11:19.422Z,31.27
2022-10-17T09:14:19.823Z,31.45
2022-10-17T09:17:03.535Z,30.68
2022-10-17T09:19:41.043Z,31.27
2022-10-17T09:22:18.213Z,31.75
2022-10-17T09:24:56.080Z,31.07
2022-10-17T09:28:10.602Z,30.85
2022-10-17T09:30:45.947Z,31.30
2022-10-17T09:33:35.118Z,29.61
2022-10-17T09:36:15.873Z,29.03
2022-10-17T09:38:47.058Z,29.05
2022-10-17T09:44:33.254Z,29.41
2022-10-17T09:47:33.261Z,30.15
2022-10-17T09:50:01.642Z,28.55
2022-10-17T09:52:35.962Z,27.84
2022-10-17T09:55:11.220Z,28.74
2022-10-17T09:57:59.039Z,29.43
2022-10-17T10:00:32.383Z,28.82
2022-10-17T10:03:17.014Z,28.52
2022-10-17T10:05:59.645Z,27.11
2022-10-17T10:08:30.662Z,27.24
2022-10-17T10:11:04.108Z,26.86
2022-10-17T10:13:33.074Z,26.20
2022-10-17T10:16:15.372Z,27.15
2022-10-17T10:18:43.308Z,27.31
2022-10-17T10:21:22.540Z,26.88
2022-10-17T10:24:08.168Z,25.58
2022-10-17T10:26:50.246Z,25.89
2022-10-17T10:29:42.263Z,25.90
2022-10-17T10:32:25.354Z,25.84
2022-10-17T10:35:03.339Z,26.09
2022-10-17T10:37:43.838Z,25.35
2022-10-17T10:40:51.371Z,24.89
2022-10-17T10:43:35.627Z,24.98
2022-10-17T10:46:05.939Z,25.68
2022-10-17T10:48:37.043Z,25.48
2022-10-17T10:51:16.900Z,25.75
2022-10-17T10:53:55.345Z,25.10
2022-10-17T10:56:31.068Z,24.67
2022-10-17T10:59:09.814Z,24.12
2022-10-17T11:01:52.296Z,24.57
2022-10-17T11:04:52.055Z,25.17
2022-10-17T11:07:23.964Z,25.21
2022-10-17T11:10:24.119Z,25.00
2022-10-17T11:13:15.253Z,24.58
2022-10-17T11:15:51.744Z,24.52
2022-10-17T11:18:32.790Z,24.22
2022-10-17T11:21:05.154Z,24.34
2022-10-17T11:23:42.421Z,23.74
2022-10-17T11:26:25.370Z,23.75
2022-10-17T11:29:04.045Z,23.38
2022-10-17T11:31:36.493Z,23.69
2022-10-17T11:34:09.707Z,23.31
2022-10-17T11:36:39.890Z,23.35
2022-10-17T11:39:22.308Z,23.43
2022-10-17T11:42:03.496Z,22.13
2022-10-17T11:44:35.714Z,22.21
2022-10-17T11:47:40.053Z,22.04
2022-10-17T11:53:10.952Z,22.16
2022-10-17T11:55:38.756Z,21.87
2022-10-17T12:01:24.143Z,22.02
2022-10-17T12:04:27.985Z,21.93
2022-10-17T12:07:16.284Z,22.00
2022-10-17T12:09:58.781Z,22.89
2022-10-17T12:12:34.873Z,22.66
2022-10-17T12:15:20.203Z,22.79
2022-10-17T12:17:55.786Z,22.56
2022-10-17T12:20:25.283Z,22.69
2022-10-17T12:23:29.524Z,22.29
2022-10-17T12:26:03.278Z,22.93
2022-10-17T12:28:37.347Z,22.86
2022-10-17T12:31:16.940Z,22.09
2022-10-17T12:33:52.299Z,22.04
2022-10-17T12:36:22.823Z,22.17
2022-10-17T12:39:01.820Z,21.66
2022-10-17T12:41:37.939Z,21.20
2022-10-17T12:44:14.337Z,21.29
2022-10-17T12:46:51.545Z,21.41
2022-10-17T12:49:41.836Z,22.33
2022-10-17T12:52:29.091Z,21.37
2022-10-17T12:55:12.617Z,20.41
2022-10-17T12:57:56.134Z,21.15
2022-10-17T13:00:59.566Z,20.84
2022-10-17T13:03:34.495Z,21.09
2022-10-17T13:06:06.958Z,21.21
2022-10-17T13:08:39.526Z,21.07
2022-10-17T13:11:07.557Z,21.68
2022-10-17T13:13:48.425Z,22.13
2022-10-17T13:16:30.727Z,22.92
2022-10-17T13:18:59.980Z,23.78
2022-10-17T13:21:27.276Z,23.80
2022-10-17T13:23:54.129Z,23.68
2022-10-17T13:26:24.421Z,23.27
2022-10-17T13:29:05.950Z,24.18
2022-10-17T13:31:35.500Z,24.40
2022-10-17T13:34:05.409Z,23.87
2022-10-17T13:36:33.973Z,24.23
2022-10-17T13:39:12.207Z,24.11
2022-10-17T13:41:41.351Z,25.08
2022-10-17T13:44:23.870Z,25.27
2022-10-17T13:46:51.763Z,25.31
2022-10-17T13:49:30.400Z,25.77
2022-10-17T13:51:58.763Z,25.41
2022-10-17T13:54:36.429Z,25.38
2022-10-17T13:57:04.362Z,26.05
2022-10-17T13:59:39.465Z,25.99
2022-10-17T14:02:15.804Z,25.83
2022-10-17T14:05:11.637Z,26.16
2022-10-17T14:08:13.010Z,26.37
2022-10-17T14:10:43.490Z,25.98
2022-10-17T14:13:26.626Z,26.66
2022-10-17T14:15:55.200Z,27.14
2022-10-17T14:18:34.802Z,26.69
2022-10-17T14:23:51.206Z,26.86
2022-10-17T14:26:23.124Z,27.29
2022-10-17T14:29:07.198Z,27.96
2022-10-17T14:31:36.317Z,28.25
2022-10-17T14:34:04.366Z,28.75
2022-10-17T14:36:38.164Z,28.47
2022-10-17T14:39:11.908Z,28.28
2022-10-17T14:41:44.368Z,28.26
2022-10-17T14:44:28.832Z,28.55
2022-10-17T14:47:30.204Z,28.61
2022-10-17T14:50:02.050Z,28.90
2022-10-17T14:52:31.183Z,28.86
2022-10-17T14:54:59.700Z,29.28
2022-10-17T14:57:32.452Z,29.12
2022-10-17T14:59:59.420Z,29.66
2022-10-17T15:02:28.545Z,30.06
2022-10-17T15:04:55.878Z,30.78
2022-10-17T15:07:23.563Z,31.53
2022-10-17T15:09:52.237Z,32.49
2022-10-17T15:12:24.529Z,32.90
2022-10-17T15:14:52.138Z,33.77
2022-10-17T15:17:22.882Z,34.93
2022-10-17T15:19:50.083Z,36.41
2022-10-17T15:22:17.605Z,37.44
2022-10-17T15:24:45.678Z,37.83
2022-10-17T15:27:17.676Z,38.27
2022-10-17T15:29:45.086Z,38.94
2022-10-17T15:32:11.770Z,40.28
2022-10-17T15:34:38.664Z,41.01
2022-10-17T15:37:10.496Z,41.98
2022-10-17T15:39:37.613Z,43.20
2022-10-17T15:42:08.357Z,44.18
2022-10-17T15:44:36.085Z,44.93
2022-10-17T15:47:03.383Z,45.51
2022-10-17T15:49:30.021Z,46.35
2022-10-17T15:51:56.673Z,46.92
2022-10-17T15:54:23.244Z,47.49
2022-10-17T15:56:54.407Z,48.02
2022-10-17T15:59:29.215Z,49.00
2022-10-17T16:01:56.178Z,49.11
2022-10-17T16:04:26.157Z,49.90
2022-10-17T16:06:52.978Z,49.98
2022-10-17T16:09:19.553Z,50.80
2022-10-17T16:11:46.212Z,50.91
2022-10-17T16:14:15.196Z,51.49
2022-10-17T16:16:42.552Z,51.81
2022-10-17T16:19:09.159Z,51.98
2022-10-17T16:21:38.922Z,51.97
2022-10-17T16:24:06.012Z,52.35
2022-10-17T16:26:32.654Z,52.32
2022-10-17T16:29:03.190Z,52.38
2022-10-17T16:31:33.295Z,52.38
2022-10-17T16:34:02.476Z,52.30
2022-10-17T16:36:29.797Z,51.06
2022-10-17T16:38:56.590Z,51.38
2022-10-17T16:41:28.611Z,51.39
2022-10-17T16:43:58.303Z,51.82
2022-10-17T16:46:26.943Z,51.80
2022-10-17T16:48:54.799Z,51.99
2022-10-17T16:51:22.076Z,51.88
2022-10-17T16:53:52.281Z,51.86
2022-10-17T16:56:21.342Z,51.83
2022-10-17T16:58:48.978Z,51.74
2022-10-17T17:01:20.643Z,51.59
2022-10-17T17:03:47.985Z,51.71
2022-10-17T17:06:23.783Z,51.91
2022-10-17T17:08:50.894Z,52.54
2022-10-17T17:11:19.745Z,52.50
2022-10-17T17:13:46.617Z,52.75
2022-10-17T17:16:20.956Z,53.02
2022-10-17T17:18:50.960Z,53.12
2022-10-17T17:21:17.620Z,53.28
2022-10-17T17:23:44.271Z,53.31
2022-10-17T17:26:14.135Z,53.56
2022-10-17T17:28:41.743Z,53.61
2022-10-17T17:31:12.506Z,53.46
2022-10-17T17:33:40.287Z,53.68
2022-10-17T17:36:09.658Z,53.86
2022-10-17T17:38:36.552Z,53.73
2022-10-17T17:41:04.100Z,51.83
2022-10-17T17:43:30.852Z,49.77
2022-10-17T17:46:01.304Z,51.19
2022-10-17T17:48:28.425Z,50.85
2022-10-17T17:50:55.127Z,50.73
2022-10-17T17:53:21.849Z,50.53
2022-10-17T17:55:59.788Z,50.37
2022-10-17T17:58:26.383Z,49.60
2022-10-17T18:00:53.104Z,49.63
2022-10-17T18:03:19.724Z,49.44
2022-10-17T18:05:46.306Z,48.98
2022-10-17T18:08:12.899Z,48.15
2022-10-17T18:10:39.490Z,47.86
2022-10-17T18:13:06.083Z,47.51
2022-10-17T18:15:32.686Z,47.49
2022-10-17T18:17:59.567Z,47.01
2022-10-17T18:20:27.192Z,46.37
2022-10-17T18:22:53.813Z,46.12
2022-10-17T18:25:20.813Z,45.97
2022-10-17T18:27:47.963Z,45.70
2022-10-17T18:30:15.575Z,45.70
2022-10-17T18:32:42.337Z,45.77
2022-10-17T18:35:09.336Z,46.01
2022-10-17T18:37:36.041Z,45.93
2022-10-17T18:40:03.289Z,45.89
2022-10-17T18:42:30.207Z,46.08
2022-10-17T18:44:57.169Z,46.10
2022-10-17T18:47:23.981Z,46.11
2022-10-17T18:49:50.701Z,46.26
2022-10-17T18:52:17.412Z,46.16
2022-10-17T18:54:44.300Z,46.11
2022-10-17T18:57:11.208Z,46.24
2022-10-17T18:59:37.887Z,46.49
2022-10-17T19:02:05.412Z,46.58
2022-10-17T19:04:57.136Z,46.55
2022-10-17T19:07:23.766Z,46.63
2022-10-17T19:09:50.399Z,46.26
2022-10-17T19:12:17.101Z,45.98
2022-10-17T19:14:43.713Z,45.98
2022-10-17T19:17:10.407Z,46.51
2022-10-17T19:19:37.258Z,46.60
2022-10-17T19:22:04.970Z,46.85
2022-10-17T19:24:31.581Z,46.92
2022-10-17T19:27:01.993Z,46.78
2022-10-17T19:29:32.517Z,47.05
2022-10-17T19:32:00.446Z,46.80
2022-10-17T19:34:27.269Z,47.04
2022-10-17T19:36:55.168Z,47.02
2022-10-17T19:39:23.298Z,46.95
2022-10-17T19:41:49.946Z,46.87
2022-10-17T19:44:17.310Z,46.84
2022-10-17T19:46:46.125Z,46.92
2022-10-17T19:49:13.357Z,47.12
2022-10-17T19:51:40.041Z,46.58
2022-10-17T19:54:06.653Z,47.10
2022-10-17T19:56:37.634Z,47.15
2022-10-17T19:59:05.736Z,47.16
2022-10-17T20:01:35.229Z,47.17
2022-10-17T20:04:02.286Z,47.39
2022-10-17T20:06:28.948Z,47.06
2022-10-17T20:08:55.743Z,47.02
2022-10-17T20:11:27.642Z,47.48
2022-10-17T20:13:55.714Z,47.74
2022-10-17T20:16:25.347Z,47.85
2022-10-17T20:18:55.069Z,47.92
2022-10-17T20:21:27.997Z,48.03
2022-10-17T20:23:54.989Z,48.26
2022-10-17T20:26:33.661Z,47.94
2022-10-17T20:29:11.816Z,48.39
2022-10-17T20:31:40.416Z,48.62
2022-10-17T20:34:07.459Z,48.61
2022-10-17T20:36:36.554Z,49.34
2022-10-17T20:39:04.203Z,49.24
2022-10-17T20:41:31.146Z,49.66
2022-10-17T20:43:57.871Z,49.95
2022-10-17T20:46:45.189Z,49.92
2022-10-17T20:49:15.656Z,50.44
2022-10-17T20:51:42.880Z,51.18
2022-10-17T20:54:11.079Z,51.25
2022-10-17T20:56:38.164Z,51.67
2022-10-17T20:59:07.644Z,51.99
2022-10-17T21:01:35.713Z,52.26
2022-10-17T21:04:27.062Z,52.90
2022-10-17T21:06:51.667Z,52.98
2022-10-17T21:09:19.199Z,53.63
2022-10-17T21:11:46.071Z,53.90
2022-10-17T21:14:12.790Z,54.02
2022-10-17T21:16:40.759Z,53.98
2022-10-17T21:19:07.330Z,54.27
2022-10-17T21:21:37.003Z,54.24
2022-10-17T21:24:06.373Z,54.31
2022-10-17T21:26:35.224Z,54.22
2022-10-17T21:29:05.166Z,54.79
2022-10-17T21:31:37.068Z,54.81
2022-10-17T21:34:13.242Z,54.80
2022-10-17T21:36:40.967Z,55.57
2022-10-17T21:41:39.881Z,56.36
2022-10-17T21:44:12.291Z,56.87
2022-10-17T21:46:38.954Z,57.85
2022-10-17T21:49:05.825Z,57.81
2022-10-17T21:51:32.650Z,58.34
2022-10-17T21:53:59.269Z,57.83
2022-10-17T21:56:28.095Z,58.11
2022-10-17T21:58:55.282Z,58.22
2022-10-17T22:01:24.760Z,58.72
2022-10-17T22:03:54.565Z,58.96
2022-10-17T22:09:19.491Z,59.29
2022-10-17T22:11:48.513Z,59.79
2022-10-17T22:14:17.484Z,60.37
2022-10-17T22:16:45.790Z,61.31
2022-10-17T22:19:14.388Z,61.96
2022-10-17T22:21:41.023Z,62.92
2022-10-17T22:24:10.265Z,63.68
2022-10-17T22:26:37.774Z,64.21
2022-10-17T22:29:06.655Z,64.57
2022-10-17T22:31:34.652Z,65.09
2022-10-17T22:34:01.619Z,65.40
2022-10-17T22:36:28.711Z,66.05
2022-10-17T22:38:55.374Z,66.07
2022-10-17T22:41:22.515Z,66.69
2022-10-17T22:43:49.126Z,67.03
2022-10-17T22:46:16.403Z,67.64
2022-10-17T22:48:43.526Z,68.14
2022-10-17T22:51:10.514Z,68.42
2022-10-17T22:53:37.293Z,68.12
2022-10-17T22:56:15.456Z,68.36
2022-10-17T22:58:42.576Z,68.11
2022-10-17T23:01:14.460Z,68.54
2022-10-17T23:03:41.630Z,69.09
2022-10-17T23:06:08.589Z,69.39
2022-10-17T23:08:35.901Z,69.62
2022-10-17T23:11:02.823Z,70.09
2022-10-17T23:13:29.496Z,70.47
2022-10-17T23:15:56.915Z,70.93
2022-10-17T23:18:25.902Z,71.21
2022-10-17T23:20:53.030Z,71.59
2022-10-17T23:23:20.441Z,71.80
2022-10-17T23:25:48.836Z,72.51
2022-10-17T23:28:15.814Z,73.97
2022-10-17T23:30:42.464Z,74.99
2022-10-17T23:33:11.939Z,77.41
2022-10-17T23:35:38.612Z,79.94
2022-10-17T23:38:05.312Z,82.56
2022-10-17T23:40:32.415Z,84.64
2022-10-17T23:42:59.040Z,86.72
2022-10-17T23:45:25.805Z,88.02
2022-10-17T23:47:52.398Z,88.94
2022-10-17T23:50:19.008Z,89.39
2022-10-17T23:52:45.652Z,88.22
2022-10-17T23:55:12.288Z,87.93
2022-10-17T23:57:38.888Z,88.04
